Terminal Aerodrome Forecast
Issued by NWS

Home | Current Version | Previous Version | Text Only | Print | Product List | Glossary On
Versions: 1 2 3 4 5 6 7 8 9 10 11 12 13 14 15 16 17 18 19 20 21 22 23 24 25 26 27
000
FTUS45 KGJT 181140
TAFCNY
TAF
KCNY 181140Z 1812/1912 32003KT P6SM VCFG SCT009 OVC017
     FM181500 VRB03KT P6SM FEW020 BKN040
     FM181800 30003KT P6SM FEW015 BKN060
     FM182100 30003KT P6SM FEW050 SCT250
     FM190200 26003KT P6SM SKC=

USA.gov is the U.S. government's official web portal to all federal, state and local government web resources and services.